Abeokuta, Nigeria
Current Conditions -  °F | °C
As of 8:00 AM on Sunday 23 Nov 2014 (Local Time) from DNMM Reporting Station
Haze Haze  
Wind Chill: 79°   Ceiling: Unl
Heat Index: 83°   Visibility: 0.87mi
Dew Point: 77°   Wind: 2mph
Humidity: 94%   Direction: NA
Pressure: 29.91"   Gusts: NA
Location:  7.16°N, 3.35°E
Report Text: DNMM 230700Z VRB02KT 1400 R18R/1500U R36L/1000U BR FEW010 26/25 Q1013 TEMPO 1500
Loading
Personal Weather Stations






























Interactive Weather Map New forecast layout! Learn more

10-Day Weather Forecast

Advertisements
Track Severe Weather on mobile